createdAt,value
2023-04-22T00:01:27.448Z,100.00
2023-04-22T00:04:15.352Z,100.00
2023-04-22T00:07:03.111Z,100.00
2023-04-22T00:09:52.105Z,100.00
2023-04-22T00:12:40.048Z,100.00
2023-04-22T00:15:28.145Z,100.00
2023-04-22T00:18:16.339Z,100.00
2023-04-22T00:21:03.812Z,100.00
2023-04-22T00:23:51.247Z,100.00
2023-04-22T00:26:40.151Z,100.00
2023-04-22T00:29:27.623Z,100.00
2023-04-22T00:32:14.986Z,100.00
2023-04-22T00:35:02.433Z,100.00
2023-04-22T00:37:49.971Z,100.00
2023-04-22T00:40:37.594Z,100.00
2023-04-22T00:43:26.406Z,100.00
2023-04-22T00:46:15.483Z,100.00
2023-04-22T00:49:03.972Z,100.00
2023-04-22T00:51:51.359Z,100.00
2023-04-22T00:54:38.995Z,100.00
2023-04-22T00:57:26.393Z,100.00
2023-04-22T01:00:16.272Z,100.00
2023-04-22T01:03:07.365Z,100.00
2023-04-22T01:05:55.201Z,100.00
2023-04-22T01:08:43.596Z,100.00
2023-04-22T01:11:31.629Z,100.00
2023-04-22T01:14:19.223Z,100.00
2023-04-22T01:17:10.194Z,100.00
2023-04-22T01:19:57.966Z,100.00
2023-04-22T01:22:47.796Z,100.00
2023-04-22T01:25:37.569Z,100.00
2023-04-22T01:28:26.110Z,100.00
2023-04-22T01:31:14.123Z,100.00
2023-04-22T01:34:02.369Z,100.00
2023-04-22T01:36:50.751Z,100.00
2023-04-22T01:39:39.607Z,100.00
2023-04-22T01:42:29.286Z,100.00
2023-04-22T01:45:17.485Z,100.00
2023-04-22T01:48:06.877Z,100.00
2023-04-22T01:50:54.948Z,100.00
2023-04-22T01:53:42.855Z,100.00
2023-04-22T01:56:30.748Z,100.00
2023-04-22T01:59:21.510Z,100.00
2023-04-22T02:02:09.361Z,100.00
2023-04-22T02:04:57.032Z,100.00
2023-04-22T02:07:44.813Z,100.00
2023-04-22T02:10:32.926Z,100.00
2023-04-22T02:13:20.807Z,100.00
2023-04-22T02:16:10.828Z,100.00
2023-04-22T02:18:58.540Z,100.00
2023-04-22T02:21:46.054Z,100.00
2023-04-22T02:24:33.410Z,100.00
2023-04-22T02:27:21.030Z,100.00
2023-04-22T02:30:09.856Z,100.00
2023-04-22T02:32:58.721Z,100.00
2023-04-22T02:35:46.653Z,100.00
2023-04-22T02:38:34.200Z,100.00
2023-04-22T02:41:21.806Z,100.00
2023-04-22T02:44:09.632Z,100.00
2023-04-22T02:46:57.099Z,100.00
2023-04-22T02:49:45.911Z,100.00
2023-04-22T02:52:35.430Z,100.00
2023-04-22T02:55:25.796Z,100.00
2023-04-22T02:58:13.208Z,100.00
2023-04-22T03:01:00.936Z,100.00
2023-04-22T03:03:48.681Z,100.00
2023-04-22T03:06:37.648Z,100.00
2023-04-22T03:09:25.700Z,100.00
2023-04-22T03:12:13.211Z,100.00
2023-04-22T03:15:00.790Z,100.00
2023-04-22T03:17:48.152Z,100.00
2023-04-22T03:20:36.086Z,100.00
2023-04-22T03:23:24.814Z,100.00
2023-04-22T03:26:13.589Z,100.00
2023-04-22T03:29:01.192Z,100.00
2023-04-22T03:31:48.880Z,100.00
2023-04-22T03:34:37.308Z,100.00
2023-04-22T03:37:24.999Z,100.00
2023-04-22T03:40:14.418Z,100.00
2023-04-22T03:43:03.646Z,100.00
2023-04-22T03:45:53.083Z,100.00
2023-04-22T03:48:42.529Z,100.00
2023-04-22T03:51:30.213Z,100.00
2023-04-22T03:54:17.952Z,100.00
2023-04-22T03:57:07.157Z,100.00
2023-04-22T03:59:54.749Z,100.00
2023-04-22T04:02:42.654Z,100.00
2023-04-22T04:05:30.315Z,100.00
2023-04-22T04:08:18.106Z,100.00
2023-04-22T04:11:06.181Z,100.00
2023-04-22T04:13:55.018Z,100.00
2023-04-22T04:16:42.906Z,100.00
2023-04-22T04:19:30.538Z,100.00
2023-04-22T04:22:18.331Z,100.00
2023-04-22T04:25:07.648Z,100.00
2023-04-22T04:27:55.441Z,100.00
2023-04-22T04:30:44.307Z,100.00
2023-04-22T04:33:32.769Z,100.00
2023-04-22T04:36:20.400Z,100.00
2023-04-22T04:39:09.484Z,100.00
2023-04-22T04:41:58.923Z,100.00
2023-04-22T04:44:47.431Z,100.00
2023-04-22T04:47:36.566Z,100.00
2023-04-22T04:50:24.455Z,100.00
2023-04-22T04:53:13.693Z,100.00
2023-04-22T04:56:01.479Z,100.00
2023-04-22T04:58:48.920Z,100.00
2023-04-22T05:01:36.784Z,100.00
2023-04-22T05:04:26.305Z,100.00
2023-04-22T05:07:14.246Z,100.00
2023-04-22T05:10:02.044Z,100.00
2023-04-22T05:12:49.892Z,100.00
2023-04-22T05:15:37.595Z,100.00
2023-04-22T05:18:25.395Z,100.00
2023-04-22T05:21:14.170Z,100.00
2023-04-22T05:24:02.289Z,100.00
2023-04-22T05:26:50.185Z,100.00
2023-04-22T05:29:38.252Z,100.00
2023-04-22T05:32:26.136Z,100.00
2023-04-22T05:35:14.059Z,100.00
2023-04-22T05:38:04.046Z,100.00
2023-04-22T05:40:51.750Z,100.00
2023-04-22T05:43:39.067Z,100.00
2023-04-22T05:46:26.907Z,100.00
2023-04-22T05:49:14.702Z,100.00
2023-04-22T05:52:05.349Z,100.00
2023-04-22T05:54:54.220Z,100.00
2023-04-22T05:57:41.683Z,100.00
2023-04-22T06:00:29.323Z,100.00
2023-04-22T06:03:17.352Z,100.00
2023-04-22T06:06:06.259Z,100.00
2023-04-22T06:08:54.117Z,100.00
2023-04-22T06:11:43.148Z,100.00
2023-04-22T06:14:30.944Z,100.00
2023-04-22T06:17:18.418Z,100.00
2023-04-22T06:20:07.492Z,100.00
2023-04-22T06:22:55.122Z,100.00
2023-04-22T06:25:42.651Z,100.00
2023-04-22T06:28:31.777Z,100.00
2023-04-22T06:31:21.047Z,100.00
2023-04-22T06:34:08.574Z,100.00
2023-04-22T06:36:56.030Z,100.00
2023-04-22T06:39:43.466Z,100.00
2023-04-22T06:42:31.046Z,100.00
2023-04-22T06:45:21.100Z,100.00
2023-04-22T06:48:08.819Z,100.00
2023-04-22T06:50:57.346Z,100.00
2023-04-22T06:53:52.631Z,100.00
2023-04-22T06:56:40.496Z,100.00
2023-04-22T06:59:28.037Z,100.00
2023-04-22T07:02:17.224Z,100.00
2023-04-22T07:05:04.954Z,100.00
2023-04-22T07:07:52.662Z,100.00
2023-04-22T07:10:40.757Z,100.00
2023-04-22T07:13:29.049Z,100.00
2023-04-22T07:16:16.646Z,100.00
2023-04-22T07:19:05.979Z,100.00
2023-04-22T07:21:53.877Z,100.00
2023-04-22T07:24:41.645Z,100.00
2023-04-22T07:27:29.596Z,100.00
2023-04-22T07:30:17.622Z,100.00
2023-04-22T07:33:05.593Z,100.00
2023-04-22T07:35:54.789Z,100.00
2023-04-22T07:38:42.264Z,100.00
2023-04-22T07:41:29.767Z,100.00
2023-04-22T07:44:21.542Z,100.00
2023-04-22T07:47:09.357Z,100.00
2023-04-22T07:49:56.865Z,100.00
2023-04-22T07:52:45.815Z,100.00
2023-04-22T07:55:33.444Z,100.00
2023-04-22T07:58:21.291Z,100.00
2023-04-22T08:01:09.030Z,100.00
2023-04-22T08:03:57.521Z,98.26
2023-04-22T08:06:45.690Z,97.45
2023-04-22T08:09:34.594Z,92.76
2023-04-22T08:12:22.223Z,90.39
2023-04-22T08:15:10.896Z,89.23
2023-04-22T08:17:58.913Z,91.75
2023-04-22T08:20:48.692Z,91.43
2023-04-22T08:23:36.622Z,87.50
2023-04-22T08:26:25.869Z,88.08
2023-04-22T08:29:14.794Z,83.41
2023-04-22T08:32:02.522Z,80.17
2023-04-22T08:34:51.822Z,83.51
2023-04-22T08:37:41.675Z,82.28
2023-04-22T08:40:29.193Z,82.92
2023-04-22T08:43:22.558Z,74.70
2023-04-22T08:46:10.406Z,81.26
2023-04-22T08:49:03.674Z,75.86
2023-04-22T08:51:53.002Z,70.61
2023-04-22T08:54:41.041Z,75.49
2023-04-22T08:57:29.839Z,69.24
2023-04-22T09:00:20.551Z,73.60
2023-04-22T09:03:09.513Z,66.69
2023-04-22T09:05:58.996Z,70.34
2023-04-22T09:08:47.335Z,71.33
2023-04-22T09:11:35.854Z,66.10
2023-04-22T09:14:24.094Z,66.86
2023-04-22T09:17:16.679Z,65.17
2023-04-22T09:20:06.872Z,61.66
2023-04-22T09:22:55.500Z,61.04
2023-04-22T09:25:46.578Z,67.01
2023-04-22T09:28:38.487Z,61.75
2023-04-22T09:31:28.271Z,62.54
2023-04-22T09:34:17.543Z,63.30
2023-04-22T09:37:06.780Z,59.23
2023-04-22T09:39:55.327Z,60.02
2023-04-22T09:42:51.825Z,66.65
2023-04-22T09:45:41.158Z,58.77
2023-04-22T09:48:28.802Z,57.77
2023-04-22T09:51:19.687Z,56.61
2023-04-22T09:54:10.502Z,62.72
2023-04-22T09:56:58.631Z,62.64
2023-04-22T09:59:46.480Z,64.98
2023-04-22T10:02:34.106Z,55.98
2023-04-22T10:05:21.744Z,56.41
2023-04-22T10:08:11.815Z,59.95
2023-04-22T10:10:59.270Z,58.61
2023-04-22T10:13:46.796Z,55.24
2023-04-22T10:16:36.586Z,57.52
2023-04-22T10:19:26.737Z,54.08
2023-04-22T10:22:15.352Z,53.43
2023-04-22T10:25:09.795Z,57.03
2023-04-22T10:28:05.003Z,52.88
2023-04-22T10:30:52.709Z,54.35
2023-04-22T10:33:42.022Z,52.52
2023-04-22T10:36:30.365Z,51.61
2023-04-22T10:39:19.082Z,56.18
2023-04-22T10:42:12.097Z,56.99
2023-04-22T10:45:05.256Z,57.30
2023-04-22T10:47:52.781Z,56.55
2023-04-22T10:55:00.700Z,51.40
2023-04-22T10:57:51.881Z,50.94
2023-04-22T11:00:53.257Z,45.64
2023-04-22T11:03:41.984Z,53.34
2023-04-22T11:06:31.161Z,51.64
2023-04-22T11:09:18.853Z,52.53
2023-04-22T11:12:40.066Z,46.41
2023-04-22T11:15:32.265Z,48.24
2023-04-22T11:18:23.928Z,48.48
2023-04-22T11:21:12.065Z,44.98
2023-04-22T11:24:02.942Z,47.81
2023-04-22T11:26:50.527Z,45.57
2023-04-22T11:29:38.448Z,45.27
2023-04-22T11:32:29.226Z,48.74
2023-04-22T11:35:20.476Z,40.92
2023-04-22T11:38:08.834Z,42.94
2023-04-22T11:40:58.489Z,46.87
2023-04-22T11:43:49.219Z,42.07
2023-04-22T11:46:39.455Z,47.22
2023-04-22T11:49:28.625Z,50.29
2023-04-22T11:52:16.359Z,41.97
2023-04-22T11:55:03.847Z,39.88
2023-04-22T11:57:57.310Z,42.37
2023-04-22T12:00:49.580Z,40.52
2023-04-22T12:03:37.705Z,40.53
2023-04-22T12:06:32.268Z,40.21
2023-04-22T12:09:20.191Z,38.31
2023-04-22T12:12:08.060Z,37.92
2023-04-22T12:14:57.941Z,45.96
2023-04-22T12:17:47.227Z,40.80
2023-04-22T12:20:36.150Z,42.56
2023-04-22T12:23:25.131Z,47.05
2023-04-22T12:26:13.961Z,38.85
2023-04-22T12:29:02.408Z,41.55
2023-04-22T12:31:50.092Z,36.69
2023-04-22T12:34:37.842Z,35.35
2023-04-22T12:37:25.360Z,37.20
2023-04-22T12:40:14.558Z,42.61
2023-04-22T12:43:05.995Z,39.22
2023-04-22T12:45:54.054Z,43.23
2023-04-22T12:48:42.817Z,40.29
2023-04-22T12:51:30.943Z,46.98
2023-04-22T12:54:18.408Z,43.61
2023-04-22T12:57:07.547Z,47.82
2023-04-22T12:59:55.691Z,46.71
2023-04-22T13:02:44.138Z,46.04
2023-04-22T13:05:31.850Z,44.62
2023-04-22T13:08:19.462Z,39.28
2023-04-22T13:11:07.345Z,39.91
2023-04-22T13:13:56.157Z,46.45
2023-04-22T13:16:44.028Z,43.52
2023-04-22T13:19:32.310Z,43.45
2023-04-22T13:22:20.165Z,44.77
2023-04-22T13:25:09.717Z,48.57
2023-04-22T13:27:57.494Z,45.11
2023-04-22T13:30:46.519Z,44.47
2023-04-22T13:33:34.019Z,43.71
2023-04-22T13:36:21.749Z,40.04
2023-04-22T13:39:09.585Z,38.48
2023-04-22T13:41:57.945Z,43.06
2023-04-22T13:44:45.693Z,40.47
2023-04-22T13:47:34.712Z,41.81
2023-04-22T13:50:22.647Z,47.58
2023-04-22T13:53:11.779Z,41.93
2023-04-22T13:56:00.682Z,38.81
2023-04-22T13:58:48.864Z,42.47
2023-04-22T14:01:37.894Z,38.75
2023-04-22T14:04:26.942Z,40.46
2023-04-22T14:07:14.888Z,42.23
2023-04-22T14:10:11.506Z,39.99
2023-04-22T14:12:59.119Z,47.18
2023-04-22T14:15:46.618Z,42.58
2023-04-22T14:18:36.181Z,38.13
2023-04-22T14:21:27.373Z,38.41
2023-04-22T14:24:15.691Z,37.50
2023-04-22T14:27:03.331Z,44.28
2023-04-22T14:29:52.372Z,44.23
2023-04-22T14:32:40.190Z,37.88
2023-04-22T14:35:27.854Z,37.27
2023-04-22T14:38:16.918Z,46.74
2023-04-22T14:41:05.974Z,35.84
2023-04-22T14:43:53.810Z,46.71
2023-04-22T14:46:41.468Z,46.08
2023-04-22T14:49:30.179Z,36.71
2023-04-22T14:52:20.662Z,41.90
2023-04-22T14:55:21.917Z,39.38
2023-04-22T14:58:10.617Z,46.80
2023-04-22T15:00:59.705Z,42.73
2023-04-22T15:03:48.831Z,43.71
2023-04-22T15:06:36.831Z,45.14
2023-04-22T15:09:25.295Z,47.09
2023-04-22T15:12:14.328Z,39.92
2023-04-22T15:15:02.009Z,38.63
2023-04-22T15:17:49.549Z,47.15
2023-04-22T15:20:37.337Z,41.74
2023-04-22T15:23:26.589Z,45.26
2023-04-22T15:26:15.344Z,35.41
2023-04-22T15:29:04.501Z,37.01
2023-04-22T15:31:54.452Z,38.24
2023-04-22T15:34:42.107Z,44.73
2023-04-22T15:37:29.652Z,43.03
2023-04-22T15:40:17.482Z,42.71
2023-04-22T15:43:05.307Z,42.32
2023-04-22T15:45:54.340Z,37.82
2023-04-22T15:48:46.988Z,42.22
2023-04-22T15:51:34.809Z,42.95
2023-04-22T15:54:22.260Z,42.21
2023-04-22T15:57:09.752Z,42.67
2023-04-22T16:00:09.490Z,41.84
2023-04-22T16:03:00.963Z,41.41
2023-04-22T16:05:48.813Z,41.47
2023-04-22T16:08:36.212Z,42.43
2023-04-22T16:11:23.621Z,43.13
2023-04-22T16:14:12.188Z,42.50
2023-04-22T16:16:59.972Z,42.75
2023-04-22T16:19:48.762Z,44.10
2023-04-22T16:22:37.059Z,44.14
2023-04-22T16:25:24.716Z,42.20
2023-04-22T16:28:12.448Z,40.20
2023-04-22T16:31:00.225Z,43.57
2023-04-22T16:33:48.019Z,42.98
2023-04-22T16:36:36.969Z,44.46
2023-04-22T16:39:25.450Z,45.51
2023-04-22T16:42:13.464Z,46.44
2023-04-22T16:45:01.225Z,44.08
2023-04-22T16:47:48.923Z,46.44
2023-04-22T16:50:36.444Z,46.89
2023-04-22T16:53:25.308Z,47.27
2023-04-22T16:56:12.782Z,47.96
2023-04-22T16:59:01.420Z,43.90
2023-04-22T17:01:48.849Z,48.10
2023-04-22T17:04:36.584Z,48.44
2023-04-22T17:07:24.177Z,48.90
2023-04-22T17:10:13.080Z,49.83
2023-04-22T17:13:00.745Z,48.16
2023-04-22T17:15:48.203Z,51.17
2023-04-22T17:18:35.686Z,51.95
2023-04-22T17:21:23.476Z,52.78
2023-04-22T17:24:11.224Z,50.07
2023-04-22T17:27:00.131Z,54.55
2023-04-22T17:29:47.814Z,55.29
2023-04-22T17:32:36.221Z,55.87
2023-04-22T17:35:24.166Z,56.07
2023-04-22T17:38:11.920Z,57.11
2023-04-22T17:40:59.892Z,57.56
2023-04-22T17:43:49.007Z,58.52
2023-04-22T17:46:36.875Z,59.72
2023-04-22T17:49:24.689Z,60.74
2023-04-22T17:52:12.629Z,61.60
2023-04-22T17:55:00.290Z,62.53
2023-04-22T17:57:48.288Z,63.14
2023-04-22T18:00:38.261Z,63.77
2023-04-22T18:03:26.164Z,63.99
2023-04-22T18:06:14.276Z,64.99
2023-04-22T18:09:01.969Z,65.51
2023-04-22T18:11:49.472Z,66.11
2023-04-22T18:14:37.102Z,66.29
2023-04-22T18:17:26.079Z,67.34
2023-04-22T18:20:18.714Z,67.91
2023-04-22T18:23:06.440Z,68.52
2023-04-22T18:25:54.416Z,68.76
2023-04-22T18:28:43.470Z,69.42
2023-04-22T18:31:31.292Z,69.79
2023-04-22T18:34:20.104Z,70.27
2023-04-22T18:37:07.860Z,70.66
2023-04-22T18:39:55.261Z,71.28
2023-04-22T18:42:44.699Z,71.54
2023-04-22T18:45:32.634Z,72.34
2023-04-22T18:48:22.349Z,72.55
2023-04-22T18:51:12.286Z,73.33
2023-04-22T18:54:00.136Z,74.05
2023-04-22T18:56:47.597Z,74.66
2023-04-22T18:59:35.208Z,75.77
2023-04-22T19:02:23.203Z,76.43
2023-04-22T19:05:11.289Z,77.26
2023-04-22T19:08:00.760Z,77.96
2023-04-22T19:10:48.313Z,78.38
2023-04-22T19:13:35.856Z,77.34
2023-04-22T19:16:25.660Z,79.34
2023-04-22T19:19:13.778Z,79.11
2023-04-22T19:22:01.600Z,79.14
2023-04-22T19:24:51.232Z,78.78
2023-04-22T19:27:39.249Z,76.02
2023-04-22T19:30:27.794Z,75.19
2023-04-22T19:33:17.621Z,75.34
2023-04-22T19:36:05.908Z,74.94
2023-04-22T19:38:53.317Z,72.76
2023-04-22T19:41:42.067Z,71.97
2023-04-22T19:44:30.390Z,73.71
2023-04-22T19:47:18.621Z,74.03
2023-04-22T19:50:09.288Z,73.47
2023-04-22T19:53:04.296Z,76.09
2023-04-22T19:55:53.678Z,78.35
2023-04-22T19:58:44.126Z,83.45
2023-04-22T20:01:32.614Z,86.92
2023-04-22T20:04:21.677Z,86.12
2023-04-22T20:07:12.133Z,83.92
2023-04-22T20:10:01.892Z,83.04
2023-04-22T20:12:50.756Z,82.81
2023-04-22T20:15:40.586Z,83.40
2023-04-22T20:18:28.586Z,83.77
2023-04-22T20:21:17.024Z,84.14
2023-04-22T20:24:06.252Z,85.37
2023-04-22T20:26:54.584Z,86.55
2023-04-22T20:29:45.072Z,87.84
2023-04-22T20:32:34.702Z,86.85
2023-04-22T20:35:22.946Z,87.96
2023-04-22T20:38:15.013Z,89.23
2023-04-22T20:41:04.843Z,89.89
2023-04-22T20:43:52.684Z,93.83
2023-04-22T20:46:40.380Z,100.00
2023-04-22T20:49:29.625Z,100.00
2023-04-22T20:52:17.591Z,100.00
2023-04-22T20:55:06.616Z,100.00
2023-04-22T20:57:54.158Z,100.00
2023-04-22T21:00:41.853Z,100.00
2023-04-22T21:03:30.981Z,100.00
2023-04-22T21:06:21.854Z,100.00
2023-04-22T21:09:10.527Z,100.00
2023-04-22T21:11:58.805Z,100.00
2023-04-22T21:14:47.877Z,100.00
2023-04-22T21:17:38.750Z,100.00
2023-04-22T21:20:28.898Z,100.00
2023-04-22T21:23:20.018Z,100.00
2023-04-22T21:26:09.344Z,100.00
2023-04-22T21:28:57.540Z,100.00
2023-04-22T21:31:51.540Z,100.00
2023-04-22T21:34:45.947Z,100.00
2023-04-22T21:37:34.313Z,100.00
2023-04-22T21:40:24.058Z,100.00
2023-04-22T21:43:11.699Z,100.00
2023-04-22T21:45:59.198Z,100.00
2023-04-22T21:48:47.167Z,100.00
2023-04-22T21:51:34.971Z,100.00
2023-04-22T21:54:22.924Z,100.00
2023-04-22T21:57:11.972Z,100.00
2023-04-22T21:59:59.578Z,100.00
2023-04-22T22:02:47.769Z,100.00
2023-04-22T22:05:36.044Z,100.00
2023-04-22T22:08:23.982Z,100.00
2023-04-22T22:11:20.251Z,100.00
2023-04-22T22:14:17.113Z,100.00
2023-04-22T22:17:05.312Z,99.41
2023-04-22T22:19:52.653Z,99.49
2023-04-22T22:22:41.278Z,100.00
2023-04-22T22:25:29.150Z,99.79
2023-04-22T22:28:16.989Z,99.84
2023-04-22T22:31:06.884Z,100.00
2023-04-22T22:33:54.478Z,100.00
2023-04-22T22:36:41.932Z,100.00
2023-04-22T22:39:29.607Z,100.00
2023-04-22T22:42:17.068Z,100.00
2023-04-22T22:45:05.584Z,100.00
2023-04-22T22:47:54.534Z,100.00
2023-04-22T22:50:42.521Z,100.00
2023-04-22T22:53:30.143Z,100.00
2023-04-22T22:56:20.813Z,100.00
2023-04-22T22:59:08.608Z,100.00
2023-04-22T23:01:56.391Z,100.00
2023-04-22T23:04:45.658Z,100.00
2023-04-22T23:07:33.474Z,100.00
2023-04-22T23:10:21.196Z,100.00
2023-04-22T23:13:08.868Z,100.00
2023-04-22T23:15:56.157Z,100.00
2023-04-22T23:18:46.352Z,100.00
2023-04-22T23:21:37.438Z,100.00
2023-04-22T23:24:25.858Z,100.00
2023-04-22T23:27:14.608Z,100.00
2023-04-22T23:30:03.058Z,100.00
2023-04-22T23:32:54.803Z,100.00
2023-04-22T23:35:44.038Z,100.00
2023-04-22T23:38:33.156Z,100.00
2023-04-22T23:41:20.920Z,100.00
2023-04-22T23:44:08.714Z,100.00
2023-04-22T23:46:56.585Z,100.00
2023-04-22T23:49:44.088Z,100.00
2023-04-22T23:52:31.546Z,100.00
2023-04-22T23:55:21.634Z,100.00
2023-04-22T23:58:09.433Z,100.00
